LTBL/IGI METAR and TAF weather

Enter ICAO airport designator
Station Type Date Time Source
LTBL METAR 2019/02/20 22:50 UTC NOAA

LTBL 202250Z 00000KT 2000 BR NSC 08/07 Q1021 NOSIG RMK RWY17 00000KT


Station Type Date Time Source
LTBL Decoded METAR 2019/02/20 22:50 UTC NOAA

Izmir / Cigli, Turkey (LTBL) 38-30N 027-01E 5M
Feb 20, 2019 - 05:50 PM EST / 2019.02.20 2250 UTC
Wind: Calm:0
Visibility: 1 mile(s):0
Weather: mist
Temperature: 46 F (8 C)
Dew Point: 44 F (7 C)
Relative Humidity: 93%
Pressure (altimeter): 30.15 in. Hg (1021 hPa)
ob: LTBL 202250Z 00000KT 2000 BR NSC 08/07 Q1021 NOSIG RMK RWY17 00000KT
cycle: 23

Station Type Date Time Source
LTBL TAF UTC NOAA

Error!


Example: see airport list